sensor_id;sensor_type;location;lat;lon;timestamp;temperature;humidity
75442;DHT22;64019;48.312;14.226;2023-06-22T00:01:59;19.70;99.90
75442;DHT22;64019;48.312;14.226;2023-06-22T00:04:25;19.70;99.90
75442;DHT22;64019;48.312;14.226;2023-06-22T00:06:51;19.60;99.90
75442;DHT22;64019;48.312;14.226;2023-06-22T00:09:17;19.60;99.90
75442;DHT22;64019;48.312;14.226;2023-06-22T00:11:42;19.60;99.90
75442;DHT22;64019;48.312;14.226;2023-06-22T00:14:08;19.70;99.90
75442;DHT22;64019;48.312;14.226;2023-06-22T00:16:34;19.70;99.90
75442;DHT22;64019;48.312;14.226;2023-06-22T00:19:00;19.70;99.90
75442;DHT22;64019;48.312;14.226;2023-06-22T00:21:27;19.70;99.90
75442;DHT22;64019;48.312;14.226;2023-06-22T00:23:53;19.60;99.90
75442;DHT22;64019;48.312;14.226;2023-06-22T00:26:19;19.40;99.90
75442;DHT22;64019;48.312;14.226;2023-06-22T00:28:46;19.40;99.90
75442;DHT22;64019;48.312;14.226;2023-06-22T00:31:12;19.40;99.90
75442;DHT22;64019;48.312;14.226;2023-06-22T00:33:39;19.40;99.90
75442;DHT22;64019;48.312;14.226;2023-06-22T00:36:05;19.40;99.90
75442;DHT22;64019;48.312;14.226;2023-06-22T00:38:32;19.30;99.90
75442;DHT22;64019;48.312;14.226;2023-06-22T00:40:57;19.30;99.90
75442;DHT22;64019;48.312;14.226;2023-06-22T00:43:23;19.30;99.90
75442;DHT22;64019;48.312;14.226;2023-06-22T00:45:49;19.20;99.90
75442;DHT22;64019;48.312;14.226;2023-06-22T00:48:14;19.10;99.90
75442;DHT22;64019;48.312;14.226;2023-06-22T00:50:41;18.90;99.90
75442;DHT22;64019;48.312;14.226;2023-06-22T00:53:08;19.00;99.90
75442;DHT22;64019;48.312;14.226;2023-06-22T00:55:36;18.90;99.90
75442;DHT22;64019;48.312;14.226;2023-06-22T00:58:06;19.00;99.90
75442;DHT22;64019;48.312;14.226;2023-06-22T01:00:36;19.00;99.90
75442;DHT22;64019;48.312;14.226;2023-06-22T01:03:02;19.00;99.90
75442;DHT22;64019;48.312;14.226;2023-06-22T01:05:28;18.90;99.90
75442;DHT22;64019;48.312;14.226;2023-06-22T01:08:16;18.80;99.90
75442;DHT22;64019;48.312;14.226;2023-06-22T01:15:57;18.50;99.90
75442;DHT22;64019;48.312;14.226;2023-06-22T01:18:26;18.60;99.90
75442;DHT22;64019;48.312;14.226;2023-06-22T01:20:55;18.60;99.90
75442;DHT22;64019;48.312;14.226;2023-06-22T01:23:27;18.70;99.90
75442;DHT22;64019;48.312;14.226;2023-06-22T01:26:28;18.70;99.90
75442;DHT22;64019;48.312;14.226;2023-06-22T01:28:57;18.70;99.90
75442;DHT22;64019;48.312;14.226;2023-06-22T01:31:26;18.80;99.90
75442;DHT22;64019;48.312;14.226;2023-06-22T01:34:06;18.80;99.90
75442;DHT22;64019;48.312;14.226;2023-06-22T01:36:33;18.90;99.90
75442;DHT22;64019;48.312;14.226;2023-06-22T01:39:00;18.70;99.90
75442;DHT22;64019;48.312;14.226;2023-06-22T01:41:29;18.70;99.90
75442;DHT22;64019;48.312;14.226;2023-06-22T01:43:56;18.70;99.90
75442;DHT22;64019;48.312;14.226;2023-06-22T01:46:22;18.60;99.90
75442;DHT22;64019;48.312;14.226;2023-06-22T01:48:49;18.60;99.90
75442;DHT22;64019;48.312;14.226;2023-06-22T01:51:15;18.60;99.90
75442;DHT22;64019;48.312;14.226;2023-06-22T01:53:41;18.60;99.90
75442;DHT22;64019;48.312;14.226;2023-06-22T01:56:08;18.70;99.90
75442;DHT22;64019;48.312;14.226;2023-06-22T01:58:37;18.70;99.90
75442;DHT22;64019;48.312;14.226;2023-06-22T02:01:09;18.70;99.90
75442;DHT22;64019;48.312;14.226;2023-06-22T02:03:40;18.70;99.90
75442;DHT22;64019;48.312;14.226;2023-06-22T02:06:16;18.60;99.90
75442;DHT22;64019;48.312;14.226;2023-06-22T02:08:53;18.60;99.90
75442;DHT22;64019;48.312;14.226;2023-06-22T02:11:22;18.60;99.90
75442;DHT22;64019;48.312;14.226;2023-06-22T02:13:48;18.60;99.90
75442;DHT22;64019;48.312;14.226;2023-06-22T02:16:15;18.60;99.90
75442;DHT22;64019;48.312;14.226;2023-06-22T02:18:49;18.70;99.90
75442;DHT22;64019;48.312;14.226;2023-06-22T02:21:19;18.60;99.90
75442;DHT22;64019;48.312;14.226;2023-06-22T02:23:45;18.60;99.90
75442;DHT22;64019;48.312;14.226;2023-06-22T02:26:12;18.50;99.90
75442;DHT22;64019;48.312;14.226;2023-06-22T02:28:37;18.50;99.90
75442;DHT22;64019;48.312;14.226;2023-06-22T02:31:03;18.50;99.90
75442;DHT22;64019;48.312;14.226;2023-06-22T02:33:29;18.50;99.90
75442;DHT22;64019;48.312;14.226;2023-06-22T02:35:55;18.40;99.90
75442;DHT22;64019;48.312;14.226;2023-06-22T02:38:20;18.40;99.90
75442;DHT22;64019;48.312;14.226;2023-06-22T02:40:47;18.30;99.90
75442;DHT22;64019;48.312;14.226;2023-06-22T02:43:13;18.30;99.90
75442;DHT22;64019;48.312;14.226;2023-06-22T02:45:38;18.20;99.90
75442;DHT22;64019;48.312;14.226;2023-06-22T02:48:05;18.20;99.90
75442;DHT22;64019;48.312;14.226;2023-06-22T02:50:30;18.20;99.90
75442;DHT22;64019;48.312;14.226;2023-06-22T02:52:56;18.20;99.90
75442;DHT22;64019;48.312;14.226;2023-06-22T02:55:22;18.20;99.90
75442;DHT22;64019;48.312;14.226;2023-06-22T02:57:49;18.10;99.90
75442;DHT22;64019;48.312;14.226;2023-06-22T03:00:18;18.00;99.90
75442;DHT22;64019;48.312;14.226;2023-06-22T03:02:45;18.00;99.90
75442;DHT22;64019;48.312;14.226;2023-06-22T03:05:12;18.10;99.90
75442;DHT22;64019;48.312;14.226;2023-06-22T03:07:42;18.20;99.90
75442;DHT22;64019;48.312;14.226;2023-06-22T03:10:13;18.20;99.90
75442;DHT22;64019;48.312;14.226;2023-06-22T03:12:39;18.30;99.90
75442;DHT22;64019;48.312;14.226;2023-06-22T03:15:06;18.30;99.90
75442;DHT22;64019;48.312;14.226;2023-06-22T03:17:34;18.40;99.90
75442;DHT22;64019;48.312;14.226;2023-06-22T03:19:59;18.40;99.90
75442;DHT22;64019;48.312;14.226;2023-06-22T03:22:25;18.40;99.90
75442;DHT22;64019;48.312;14.226;2023-06-22T03:24:51;18.40;99.90
75442;DHT22;64019;48.312;14.226;2023-06-22T03:27:17;18.50;99.90
75442;DHT22;64019;48.312;14.226;2023-06-22T03:29:44;18.50;99.90
75442;DHT22;64019;48.312;14.226;2023-06-22T03:32:10;18.50;99.90
75442;DHT22;64019;48.312;14.226;2023-06-22T03:34:35;18.50;99.90
75442;DHT22;64019;48.312;14.226;2023-06-22T03:37:01;18.40;99.90
75442;DHT22;64019;48.312;14.226;2023-06-22T03:39:30;18.50;99.90
75442;DHT22;64019;48.312;14.226;2023-06-22T03:41:55;18.50;99.90
75442;DHT22;64019;48.312;14.226;2023-06-22T03:44:21;18.40;99.90
75442;DHT22;64019;48.312;14.226;2023-06-22T03:46:47;18.50;99.90
75442;DHT22;64019;48.312;14.226;2023-06-22T03:49:12;18.50;99.90
75442;DHT22;64019;48.312;14.226;2023-06-22T03:51:38;18.60;99.90
75442;DHT22;64019;48.312;14.226;2023-06-22T03:54:04;18.60;99.90
75442;DHT22;64019;48.312;14.226;2023-06-22T03:56:30;18.70;99.90
75442;DHT22;64019;48.312;14.226;2023-06-22T03:58:56;18.70;99.90
75442;DHT22;64019;48.312;14.226;2023-06-22T04:01:22;18.80;99.90
75442;DHT22;64019;48.312;14.226;2023-06-22T04:03:48;18.90;99.90
75442;DHT22;64019;48.312;14.226;2023-06-22T04:06:15;18.80;99.90
75442;DHT22;64019;48.312;14.226;2023-06-22T04:08:41;18.80;99.90
75442;DHT22;64019;48.312;14.226;2023-06-22T04:11:06;18.90;99.90
75442;DHT22;64019;48.312;14.226;2023-06-22T04:13:32;18.80;99.90
75442;DHT22;64019;48.312;14.226;2023-06-22T04:15:58;18.90;99.90
75442;DHT22;64019;48.312;14.226;2023-06-22T04:18:23;18.90;99.90
75442;DHT22;64019;48.312;14.226;2023-06-22T04:20:49;19.00;99.90
75442;DHT22;64019;48.312;14.226;2023-06-22T04:23:15;19.00;99.90
75442;DHT22;64019;48.312;14.226;2023-06-22T04:25:40;19.20;99.90
75442;DHT22;64019;48.312;14.226;2023-06-22T04:28:06;19.20;99.90
75442;DHT22;64019;48.312;14.226;2023-06-22T04:30:38;19.10;99.90
75442;DHT22;64019;48.312;14.226;2023-06-22T04:33:15;19.10;99.90
75442;DHT22;64019;48.312;14.226;2023-06-22T04:35:41;19.30;99.90
75442;DHT22;64019;48.312;14.226;2023-06-22T04:38:07;19.30;99.90
75442;DHT22;64019;48.312;14.226;2023-06-22T04:40:33;19.40;99.90
75442;DHT22;64019;48.312;14.226;2023-06-22T04:42:59;19.50;99.90
75442;DHT22;64019;48.312;14.226;2023-06-22T04:45:28;19.60;99.90
75442;DHT22;64019;48.312;14.226;2023-06-22T04:47:54;19.70;99.90
75442;DHT22;64019;48.312;14.226;2023-06-22T04:50:20;19.80;99.90
75442;DHT22;64019;48.312;14.226;2023-06-22T04:52:50;19.90;99.90
75442;DHT22;64019;48.312;14.226;2023-06-22T04:55:16;19.90;99.90
75442;DHT22;64019;48.312;14.226;2023-06-22T04:57:45;20.10;99.90
75442;DHT22;64019;48.312;14.226;2023-06-22T05:00:18;20.20;99.90
75442;DHT22;64019;48.312;14.226;2023-06-22T05:02:45;20.40;99.90
75442;DHT22;64019;48.312;14.226;2023-06-22T05:05:12;20.50;99.90
75442;DHT22;64019;48.312;14.226;2023-06-22T05:07:46;20.60;99.90
75442;DHT22;64019;48.312;14.226;2023-06-22T05:10:14;20.70;99.90
75442;DHT22;64019;48.312;14.226;2023-06-22T05:12:40;20.80;99.90
75442;DHT22;64019;48.312;14.226;2023-06-22T05:15:07;20.70;99.90
75442;DHT22;64019;48.312;14.226;2023-06-22T05:17:33;20.70;99.90
75442;DHT22;64019;48.312;14.226;2023-06-22T05:19:59;20.80;99.90
75442;DHT22;64019;48.312;14.226;2023-06-22T05:22:25;21.20;99.90
75442;DHT22;64019;48.312;14.226;2023-06-22T05:24:50;21.30;99.90
75442;DHT22;64019;48.312;14.226;2023-06-22T05:27:16;21.30;99.90
75442;DHT22;64019;48.312;14.226;2023-06-22T05:29:42;21.30;99.90
75442;DHT22;64019;48.312;14.226;2023-06-22T05:32:08;21.30;99.90
75442;DHT22;64019;48.312;14.226;2023-06-22T05:34:34;21.30;99.90
75442;DHT22;64019;48.312;14.226;2023-06-22T05:37:00;21.40;99.90
75442;DHT22;64019;48.312;14.226;2023-06-22T05:39:25;21.50;99.90
75442;DHT22;64019;48.312;14.226;2023-06-22T05:41:52;21.50;99.90
75442;DHT22;64019;48.312;14.226;2023-06-22T05:44:18;21.50;99.90
75442;DHT22;64019;48.312;14.226;2023-06-22T05:46:44;21.50;99.90
75442;DHT22;64019;48.312;14.226;2023-06-22T05:49:15;21.60;99.90
75442;DHT22;64019;48.312;14.226;2023-06-22T05:51:41;21.70;99.90
75442;DHT22;64019;48.312;14.226;2023-06-22T05:54:07;21.80;99.90
75442;DHT22;64019;48.312;14.226;2023-06-22T05:56:34;21.90;99.90
75442;DHT22;64019;48.312;14.226;2023-06-22T05:59:00;21.90;99.90
75442;DHT22;64019;48.312;14.226;2023-06-22T06:01:25;22.00;99.90
75442;DHT22;64019;48.312;14.226;2023-06-22T06:03:52;22.10;99.90
75442;DHT22;64019;48.312;14.226;2023-06-22T06:06:19;22.10;99.90
75442;DHT22;64019;48.312;14.226;2023-06-22T06:08:54;22.20;99.90
75442;DHT22;64019;48.312;14.226;2023-06-22T06:11:20;22.40;99.90
75442;DHT22;64019;48.312;14.226;2023-06-22T06:13:46;22.50;99.90
75442;DHT22;64019;48.312;14.226;2023-06-22T06:16:13;22.50;99.90
75442;DHT22;64019;48.312;14.226;2023-06-22T06:18:39;22.80;99.90
75442;DHT22;64019;48.312;14.226;2023-06-22T06:21:05;22.90;99.90
75442;DHT22;64019;48.312;14.226;2023-06-22T06:23:30;23.00;99.90
75442;DHT22;64019;48.312;14.226;2023-06-22T06:25:56;23.10;99.90
75442;DHT22;64019;48.312;14.226;2023-06-22T06:28:22;23.20;99.90
75442;DHT22;64019;48.312;14.226;2023-06-22T06:30:47;23.40;99.90
75442;DHT22;64019;48.312;14.226;2023-06-22T06:33:13;23.40;99.90
75442;DHT22;64019;48.312;14.226;2023-06-22T06:35:39;23.50;99.90
75442;DHT22;64019;48.312;14.226;2023-06-22T06:38:05;23.60;99.90
75442;DHT22;64019;48.312;14.226;2023-06-22T06:40:31;23.60;99.90
75442;DHT22;64019;48.312;14.226;2023-06-22T06:42:56;23.70;99.90
75442;DHT22;64019;48.312;14.226;2023-06-22T06:45:23;23.90;99.90
75442;DHT22;64019;48.312;14.226;2023-06-22T06:47:53;23.90;99.90
75442;DHT22;64019;48.312;14.226;2023-06-22T06:50:19;24.00;99.90
75442;DHT22;64019;48.312;14.226;2023-06-22T06:52:45;24.10;99.90
75442;DHT22;64019;48.312;14.226;2023-06-22T06:55:11;24.10;99.90
75442;DHT22;64019;48.312;14.226;2023-06-22T06:57:38;24.30;99.90
75442;DHT22;64019;48.312;14.226;2023-06-22T07:00:08;24.30;99.90
75442;DHT22;64019;48.312;14.226;2023-06-22T07:02:40;24.60;99.90
75442;DHT22;64019;48.312;14.226;2023-06-22T07:05:07;24.50;99.90
75442;DHT22;64019;48.312;14.226;2023-06-22T07:07:33;24.50;99.90
75442;DHT22;64019;48.312;14.226;2023-06-22T07:09:59;24.50;99.90
75442;DHT22;64019;48.312;14.226;2023-06-22T07:12:24;24.60;99.90
75442;DHT22;64019;48.312;14.226;2023-06-22T07:15:00;24.70;99.90
75442;DHT22;64019;48.312;14.226;2023-06-22T07:17:26;24.80;99.90
75442;DHT22;64019;48.312;14.226;2023-06-22T07:19:51;25.00;99.90
75442;DHT22;64019;48.312;14.226;2023-06-22T07:22:17;25.20;99.90
75442;DHT22;64019;48.312;14.226;2023-06-22T07:24:43;25.30;99.90
75442;DHT22;64019;48.312;14.226;2023-06-22T07:27:09;25.50;99.90
75442;DHT22;64019;48.312;14.226;2023-06-22T07:29:36;25.60;99.90
75442;DHT22;64019;48.312;14.226;2023-06-22T07:32:03;25.80;99.90
75442;DHT22;64019;48.312;14.226;2023-06-22T07:34:30;25.80;99.90
75442;DHT22;64019;48.312;14.226;2023-06-22T07:36:56;26.00;99.90
75442;DHT22;64019;48.312;14.226;2023-06-22T07:39:21;26.00;99.90
75442;DHT22;64019;48.312;14.226;2023-06-22T07:41:51;26.10;99.90
75442;DHT22;64019;48.312;14.226;2023-06-22T07:44:17;26.10;99.90
75442;DHT22;64019;48.312;14.226;2023-06-22T07:46:42;26.20;99.90
75442;DHT22;64019;48.312;14.226;2023-06-22T07:49:09;26.40;99.90
75442;DHT22;64019;48.312;14.226;2023-06-22T07:51:35;26.40;99.90
75442;DHT22;64019;48.312;14.226;2023-06-22T07:54:01;26.60;99.90
75442;DHT22;64019;48.312;14.226;2023-06-22T07:56:26;26.80;99.90
75442;DHT22;64019;48.312;14.226;2023-06-22T07:58:52;27.00;99.90
75442;DHT22;64019;48.312;14.226;2023-06-22T08:01:19;27.10;99.90
75442;DHT22;64019;48.312;14.226;2023-06-22T08:03:48;27.20;99.90
75442;DHT22;64019;48.312;14.226;2023-06-22T08:06:14;27.40;99.90
75442;DHT22;64019;48.312;14.226;2023-06-22T08:08:40;27.50;99.90
75442;DHT22;64019;48.312;14.226;2023-06-22T08:11:06;27.50;99.90
75442;DHT22;64019;48.312;14.226;2023-06-22T08:13:32;27.60;99.90
75442;DHT22;64019;48.312;14.226;2023-06-22T08:15:57;27.70;99.90
75442;DHT22;64019;48.312;14.226;2023-06-22T08:18:23;27.90;99.90
75442;DHT22;64019;48.312;14.226;2023-06-22T08:20:49;27.80;99.90
75442;DHT22;64019;48.312;14.226;2023-06-22T08:23:15;28.10;99.90
75442;DHT22;64019;48.312;14.226;2023-06-22T08:25:41;28.10;99.90
75442;DHT22;64019;48.312;14.226;2023-06-22T08:28:06;28.20;99.90
75442;DHT22;64019;48.312;14.226;2023-06-22T08:30:32;28.10;99.90
75442;DHT22;64019;48.312;14.226;2023-06-22T08:32:58;28.20;99.90
75442;DHT22;64019;48.312;14.226;2023-06-22T08:35:24;28.30;99.90
75442;DHT22;64019;48.312;14.226;2023-06-22T08:37:50;28.30;99.90
75442;DHT22;64019;48.312;14.226;2023-06-22T08:40:20;28.50;99.90
75442;DHT22;64019;48.312;14.226;2023-06-22T08:42:47;28.60;99.90
75442;DHT22;64019;48.312;14.226;2023-06-22T08:45:13;28.70;99.90
75442;DHT22;64019;48.312;14.226;2023-06-22T08:47:39;28.80;99.90
75442;DHT22;64019;48.312;14.226;2023-06-22T08:50:07;28.60;99.90
75442;DHT22;64019;48.312;14.226;2023-06-22T08:52:34;28.60;99.90
75442;DHT22;64019;48.312;14.226;2023-06-22T08:55:00;28.80;99.90
75442;DHT22;64019;48.312;14.226;2023-06-22T08:57:27;28.90;99.90
75442;DHT22;64019;48.312;14.226;2023-06-22T08:59:53;29.00;99.90
75442;DHT22;64019;48.312;14.226;2023-06-22T09:02:19;29.00;99.90
75442;DHT22;64019;48.312;14.226;2023-06-22T09:04:48;29.00;99.90
75442;DHT22;64019;48.312;14.226;2023-06-22T09:07:15;29.10;99.90
75442;DHT22;64019;48.312;14.226;2023-06-22T09:09:47;29.40;99.90
75442;DHT22;64019;48.312;14.226;2023-06-22T09:12:13;29.40;99.90
75442;DHT22;64019;48.312;14.226;2023-06-22T09:14:40;29.40;99.90
75442;DHT22;64019;48.312;14.226;2023-06-22T09:17:06;29.30;99.90
75442;DHT22;64019;48.312;14.226;2023-06-22T09:19:32;29.30;99.90
75442;DHT22;64019;48.312;14.226;2023-06-22T09:21:58;29.40;99.90
75442;DHT22;64019;48.312;14.226;2023-06-22T09:24:24;29.30;99.90
75442;DHT22;64019;48.312;14.226;2023-06-22T09:26:50;29.40;99.90
75442;DHT22;64019;48.312;14.226;2023-06-22T09:29:16;29.50;99.90
75442;DHT22;64019;48.312;14.226;2023-06-22T09:31:42;29.50;99.90
75442;DHT22;64019;48.312;14.226;2023-06-22T09:34:08;29.50;99.90
75442;DHT22;64019;48.312;14.226;2023-06-22T09:36:33;29.60;99.90
75442;DHT22;64019;48.312;14.226;2023-06-22T09:39:00;29.70;99.90
75442;DHT22;64019;48.312;14.226;2023-06-22T09:41:31;29.80;99.90
75442;DHT22;64019;48.312;14.226;2023-06-22T09:43:56;29.70;99.90
75442;DHT22;64019;48.312;14.226;2023-06-22T09:46:22;29.80;99.90
75442;DHT22;64019;48.312;14.226;2023-06-22T09:48:50;29.70;99.90
75442;DHT22;64019;48.312;14.226;2023-06-22T09:51:16;29.70;99.90
75442;DHT22;64019;48.312;14.226;2023-06-22T09:53:42;29.80;99.90
75442;DHT22;64019;48.312;14.226;2023-06-22T09:56:09;29.70;99.90
75442;DHT22;64019;48.312;14.226;2023-06-22T09:58:43;29.60;99.90
75442;DHT22;64019;48.312;14.226;2023-06-22T10:01:09;29.70;99.90
75442;DHT22;64019;48.312;14.226;2023-06-22T10:03:36;29.70;99.90
75442;DHT22;64019;48.312;14.226;2023-06-22T10:06:02;29.70;99.90
75442;DHT22;64019;48.312;14.226;2023-06-22T10:08:28;29.60;99.90
75442;DHT22;64019;48.312;14.226;2023-06-22T10:10:54;29.70;99.90
75442;DHT22;64019;48.312;14.226;2023-06-22T10:13:21;29.50;99.90
75442;DHT22;64019;48.312;14.226;2023-06-22T10:15:46;29.60;99.90
75442;DHT22;64019;48.312;14.226;2023-06-22T10:18:16;29.60;99.90
75442;DHT22;64019;48.312;14.226;2023-06-22T10:20:43;29.70;99.90
75442;DHT22;64019;48.312;14.226;2023-06-22T10:23:09;29.70;99.90
75442;DHT22;64019;48.312;14.226;2023-06-22T10:25:34;29.90;99.90
75442;DHT22;64019;48.312;14.226;2023-06-22T10:28:00;30.00;99.90
75442;DHT22;64019;48.312;14.226;2023-06-22T10:30:26;30.00;99.90
75442;DHT22;64019;48.312;14.226;2023-06-22T10:32:51;30.20;99.90
75442;DHT22;64019;48.312;14.226;2023-06-22T10:35:17;30.20;99.90
75442;DHT22;64019;48.312;14.226;2023-06-22T10:37:44;30.10;99.90
75442;DHT22;64019;48.312;14.226;2023-06-22T10:40:11;30.10;99.90
75442;DHT22;64019;48.312;14.226;2023-06-22T10:42:37;30.10;99.90
75442;DHT22;64019;48.312;14.226;2023-06-22T10:45:03;30.40;99.90
75442;DHT22;64019;48.312;14.226;2023-06-22T10:47:29;30.20;99.90
75442;DHT22;64019;48.312;14.226;2023-06-22T10:49:55;30.30;99.90
75442;DHT22;64019;48.312;14.226;2023-06-22T10:52:21;30.40;99.90
75442;DHT22;64019;48.312;14.226;2023-06-22T10:54:46;30.60;99.90
75442;DHT22;64019;48.312;14.226;2023-06-22T10:57:12;30.60;99.90
75442;DHT22;64019;48.312;14.226;2023-06-22T10:59:38;30.60;99.90
75442;DHT22;64019;48.312;14.226;2023-06-22T11:02:03;30.50;99.90
75442;DHT22;64019;48.312;14.226;2023-06-22T11:04:29;30.60;99.90
75442;DHT22;64019;48.312;14.226;2023-06-22T11:06:55;30.60;99.90
75442;DHT22;64019;48.312;14.226;2023-06-22T11:09:21;30.70;99.90
75442;DHT22;64019;48.312;14.226;2023-06-22T11:11:49;30.80;99.90
75442;DHT22;64019;48.312;14.226;2023-06-22T11:14:15;30.90;99.90
75442;DHT22;64019;48.312;14.226;2023-06-22T11:16:40;30.90;99.90
75442;DHT22;64019;48.312;14.226;2023-06-22T11:19:07;30.90;99.90
75442;DHT22;64019;48.312;14.226;2023-06-22T11:21:33;31.10;99.90
75442;DHT22;64019;48.312;14.226;2023-06-22T11:24:00;31.00;99.90
75442;DHT22;64019;48.312;14.226;2023-06-22T11:26:26;31.00;99.90
75442;DHT22;64019;48.312;14.226;2023-06-22T11:28:55;31.10;99.90
75442;DHT22;64019;48.312;14.226;2023-06-22T11:31:20;31.10;99.90
75442;DHT22;64019;48.312;14.226;2023-06-22T11:33:46;31.20;99.90
75442;DHT22;64019;48.312;14.226;2023-06-22T11:36:13;31.20;99.90
75442;DHT22;64019;48.312;14.226;2023-06-22T11:38:39;31.20;99.90
75442;DHT22;64019;48.312;14.226;2023-06-22T11:41:09;31.30;99.90
75442;DHT22;64019;48.312;14.226;2023-06-22T11:43:35;31.50;99.90
75442;DHT22;64019;48.312;14.226;2023-06-22T11:46:02;31.50;99.90
75442;DHT22;64019;48.312;14.226;2023-06-22T11:48:28;31.70;99.90
75442;DHT22;64019;48.312;14.226;2023-06-22T11:50:54;31.60;99.90
75442;DHT22;64019;48.312;14.226;2023-06-22T11:53:24;31.50;99.90
75442;DHT22;64019;48.312;14.226;2023-06-22T11:55:50;31.50;99.90
75442;DHT22;64019;48.312;14.226;2023-06-22T11:58:16;31.60;99.90
75442;DHT22;64019;48.312;14.226;2023-06-22T12:00:42;31.70;99.90
75442;DHT22;64019;48.312;14.226;2023-06-22T12:03:08;31.80;99.90
75442;DHT22;64019;48.312;14.226;2023-06-22T12:05:34;31.70;99.90
75442;DHT22;64019;48.312;14.226;2023-06-22T12:08:00;31.80;99.90
75442;DHT22;64019;48.312;14.226;2023-06-22T12:10:26;31.80;99.90
75442;DHT22;64019;48.312;14.226;2023-06-22T12:12:54;31.90;99.90
75442;DHT22;64019;48.312;14.226;2023-06-22T12:15:20;31.90;99.90
75442;DHT22;64019;48.312;14.226;2023-06-22T12:17:45;32.00;99.90
75442;DHT22;64019;48.312;14.226;2023-06-22T12:20:13;32.00;99.90
75442;DHT22;64019;48.312;14.226;2023-06-22T12:22:40;32.10;99.90
75442;DHT22;64019;48.312;14.226;2023-06-22T12:25:06;32.10;99.90
75442;DHT22;64019;48.312;14.226;2023-06-22T12:27:32;32.00;99.90
75442;DHT22;64019;48.312;14.226;2023-06-22T12:29:58;31.90;99.90
75442;DHT22;64019;48.312;14.226;2023-06-22T12:32:24;31.90;99.90
75442;DHT22;64019;48.312;14.226;2023-06-22T12:34:51;31.80;99.90
75442;DHT22;64019;48.312;14.226;2023-06-22T12:37:17;31.90;99.90
75442;DHT22;64019;48.312;14.226;2023-06-22T12:39:42;31.80;99.90
75442;DHT22;64019;48.312;14.226;2023-06-22T12:42:08;31.80;99.90
75442;DHT22;64019;48.312;14.226;2023-06-22T12:44:38;31.80;99.90
75442;DHT22;64019;48.312;14.226;2023-06-22T12:47:07;31.70;99.90
75442;DHT22;64019;48.312;14.226;2023-06-22T12:49:36;31.80;99.90
75442;DHT22;64019;48.312;14.226;2023-06-22T12:52:08;31.80;99.90
75442;DHT22;64019;48.312;14.226;2023-06-22T12:54:33;31.80;99.90
75442;DHT22;64019;48.312;14.226;2023-06-22T12:56:59;31.80;99.90
75442;DHT22;64019;48.312;14.226;2023-06-22T12:59:25;31.70;99.90
75442;DHT22;64019;48.312;14.226;2023-06-22T13:01:51;31.60;99.90
75442;DHT22;64019;48.312;14.226;2023-06-22T13:04:16;31.70;99.90
75442;DHT22;64019;48.312;14.226;2023-06-22T13:06:44;31.80;99.90
75442;DHT22;64019;48.312;14.226;2023-06-22T13:09:13;31.90;99.90
75442;DHT22;64019;48.312;14.226;2023-06-22T13:11:39;31.90;99.90
75442;DHT22;64019;48.312;14.226;2023-06-22T13:14:05;31.80;99.90
75442;DHT22;64019;48.312;14.226;2023-06-22T13:16:30;31.80;99.90
75442;DHT22;64019;48.312;14.226;2023-06-22T13:18:56;31.80;99.90
75442;DHT22;64019;48.312;14.226;2023-06-22T13:21:22;32.00;99.90
75442;DHT22;64019;48.312;14.226;2023-06-22T13:23:47;32.10;99.90
75442;DHT22;64019;48.312;14.226;2023-06-22T13:26:13;31.90;99.90
75442;DHT22;64019;48.312;14.226;2023-06-22T13:28:39;31.90;99.90
75442;DHT22;64019;48.312;14.226;2023-06-22T13:31:04;31.80;99.90
75442;DHT22;64019;48.312;14.226;2023-06-22T13:33:31;31.80;99.90
75442;DHT22;64019;48.312;14.226;2023-06-22T13:35:56;31.80;99.90
75442;DHT22;64019;48.312;14.226;2023-06-22T13:38:22;31.80;99.90
75442;DHT22;64019;48.312;14.226;2023-06-22T13:40:48;31.60;99.90
75442;DHT22;64019;48.312;14.226;2023-06-22T13:43:14;31.70;99.90
75442;DHT22;64019;48.312;14.226;2023-06-22T13:45:41;31.70;99.90
75442;DHT22;64019;48.312;14.226;2023-06-22T13:48:07;31.80;99.90
75442;DHT22;64019;48.312;14.226;2023-06-22T13:50:33;31.90;99.90
75442;DHT22;64019;48.312;14.226;2023-06-22T13:52:58;31.90;99.90
75442;DHT22;64019;48.312;14.226;2023-06-22T13:55:24;31.90;99.90
75442;DHT22;64019;48.312;14.226;2023-06-22T13:57:50;31.90;99.90
75442;DHT22;64019;48.312;14.226;2023-06-22T14:00:17;32.00;99.90
75442;DHT22;64019;48.312;14.226;2023-06-22T14:02:43;32.10;99.90
75442;DHT22;64019;48.312;14.226;2023-06-22T14:05:09;32.10;99.90
75442;DHT22;64019;48.312;14.226;2023-06-22T14:07:35;32.30;99.90
75442;DHT22;64019;48.312;14.226;2023-06-22T14:10:01;32.20;99.90
75442;DHT22;64019;48.312;14.226;2023-06-22T14:12:27;32.10;99.90
75442;DHT22;64019;48.312;14.226;2023-06-22T14:14:52;32.10;99.90
75442;DHT22;64019;48.312;14.226;2023-06-22T14:17:20;32.10;99.90
75442;DHT22;64019;48.312;14.226;2023-06-22T14:19:49;32.10;99.90
75442;DHT22;64019;48.312;14.226;2023-06-22T14:22:18;32.10;99.90
75442;DHT22;64019;48.312;14.226;2023-06-22T14:24:44;32.20;99.90
75442;DHT22;64019;48.312;14.226;2023-06-22T14:27:09;32.20;99.90
75442;DHT22;64019;48.312;14.226;2023-06-22T14:29:36;32.20;99.90
75442;DHT22;64019;48.312;14.226;2023-06-22T14:32:03;32.30;99.90
75442;DHT22;64019;48.312;14.226;2023-06-22T14:34:31;32.20;99.90
75442;DHT22;64019;48.312;14.226;2023-06-22T14:36:57;32.30;99.90
75442;DHT22;64019;48.312;14.226;2023-06-22T14:39:23;32.30;99.90
75442;DHT22;64019;48.312;14.226;2023-06-22T14:41:49;32.30;99.90
75442;DHT22;64019;48.312;14.226;2023-06-22T14:44:15;32.20;99.90
75442;DHT22;64019;48.312;14.226;2023-06-22T14:46:41;32.10;99.90
75442;DHT22;64019;48.312;14.226;2023-06-22T14:49:07;32.10;99.90
75442;DHT22;64019;48.312;14.226;2023-06-22T14:51:33;32.20;99.90
75442;DHT22;64019;48.312;14.226;2023-06-22T14:53:59;32.20;99.90
75442;DHT22;64019;48.312;14.226;2023-06-22T14:56:26;32.20;99.90
75442;DHT22;64019;48.312;14.226;2023-06-22T14:58:51;32.20;99.90
75442;DHT22;64019;48.312;14.226;2023-06-22T15:01:17;32.30;99.90
75442;DHT22;64019;48.312;14.226;2023-06-22T15:03:43;32.40;99.90
75442;DHT22;64019;48.312;14.226;2023-06-22T15:06:10;32.30;99.90
75442;DHT22;64019;48.312;14.226;2023-06-22T15:08:42;32.30;99.90
75442;DHT22;64019;48.312;14.226;2023-06-22T15:11:08;32.30;99.90
75442;DHT22;64019;48.312;14.226;2023-06-22T15:13:34;32.20;99.90
75442;DHT22;64019;48.312;14.226;2023-06-22T15:16:01;32.20;99.90
75442;DHT22;64019;48.312;14.226;2023-06-22T15:18:28;32.20;99.90